Terminal Aerodrome Forecast
Issued by NWS

Home | Current Version | Previous Version | Text Only | Print | Product List | Glossary On
Versions: 1 2 3 4 5 6 7 8 9 10 11 12 13
000
FTUS43 KPAH 020610 AAA
TAFCGI
TAF AMD
KCGI 020610Z 0206/0306 17013G21KT 6SM -SHRA SCT040 BKN070
      TEMPO 0206/0208 3SM TSRA BKN025CB
     FM020800 18014G24KT P6SM SCT060 BKN150
     FM021500 21015G25KT P6SM SCT025 BKN040 PROB30 0220/0223 TS
      BKN040CB
     FM022300 21009KT P6SM SCT040 BKN060 PROB30 0304/0306 5SM -TSRA
      BKN030CB=

USA.gov is the U.S. government's official web portal to all federal, state and local government web resources and services.